BEY weather

Beirut Rafic Hariri International Airport
Beirut, Mount Lebanon Governorate, Lebanon

Public forecast

Using degrees Celsius for public forecast. Weather courtesy of forecast.io.

Current aviation weather report (METAR) for Beirut Rafic Hariri International Airport

Retrieved 2020/01/18 05:00 UTC (44 minutes ago):

OLBA 180500Z 17004KT 9999 BKN030 12/09 Q1017 NOSIG

Aviation forecast (TAF) for Beirut Rafic Hariri International Airport

Forecast is more than 6 hours old.

Retrieved 2020/01/17 18:42 UTC (11 hours ago):

TAF COR OLBA 171600Z 1718/1824 15006KT 8000 SCT040 SCT080 TEMPO 1718/1824 RA BKN030 BECMG 1806/1808 25012KT BECMG 1818/1820 16006KT PROB30 TEMPO 1818/1824 17008G20KT 6000 -TSRA FEW022CB SCT026